Página principal
METAR-TAF:

METAR-TAF

Aeroportos :

Kano, Nigéria

latitude: 12-03N, longitude: 008-32E, altura: 476 m

Observação actual do tempo

O boletim foi feito há 28 minutos, às 09:00 UTC
Vento 12 kt de sudoeste
Temperatura 35°C
Humidade 50%
Pressão 1016 hPa
Visibilidade 10 km ou mais
sem nuvens abaixo de 1500 metros e sem cumulonimbus

METAR: DNKN 210900Z 22012KT CAVOK 35/23 Q1016 NOSIG

Hora: 10:28 (09:28 UTC)

Previsão

O boletim foi feito há 10 horas e 28 minutos, às 23:00 UTC
Previsão válida de 21 às 00 UTC a 22 às 06 UTC
Vento 4 kt de sul
Visibilidade 10 km ou mais
sem nuvens abaixo de 1500 metros e sem cumulonimbus

TAF: DNKN 202300Z 2100/2206 18004KT CAVOK

Observações e previsões do tempo de mais de 4000 aeroportos (mensagens METAR e TAF).

As estações disponíveis são os pontos amarelos e vermelhos sobre o mapa.

Mova o rato sobre o mapa para ver o nome da estação.

Depois clique no ponto para visualizar as observações e previsões meteorológicas.

Para alterar o mapa : clique nos botões verdes com uma cruz preta para aumentar o zoom; no botão verde com uma pitada de zoom; ou nas setas verdes para mapas adjacentes.


METAR-TAF: